createdAt,value
2023-09-28T00:00:00.152Z,8.4
2023-09-28T00:05:00.224Z,8.4
2023-09-28T00:10:00.191Z,8.4
2023-09-28T00:15:00.121Z,8.5
2023-09-28T00:20:00.168Z,8.5
2023-09-28T00:25:00.149Z,8.5
2023-09-28T00:30:00.145Z,8.5
2023-09-28T00:35:00.195Z,8.5
2023-09-28T00:40:00.216Z,8.5
2023-09-28T00:45:00.139Z,8.6
2023-09-28T00:50:00.170Z,8.5
2023-09-28T00:55:00.186Z,8.5
2023-09-28T01:00:00.127Z,8.5
2023-09-28T01:05:00.152Z,8.5
2023-09-28T01:10:00.166Z,8.6
2023-09-28T01:15:00.162Z,8.5
2023-09-28T01:20:00.182Z,8.6
2023-09-28T01:25:00.171Z,8.6
2023-09-28T01:30:00.128Z,8.6
2023-09-28T01:35:00.179Z,8.7
2023-09-28T01:40:00.146Z,8.7
2023-09-28T01:45:00.154Z,8.7
2023-09-28T01:50:00.254Z,8.8
2023-09-28T01:55:00.149Z,8.8
2023-09-28T02:00:00.128Z,8.8
2023-09-28T02:05:00.214Z,8.8
2023-09-28T02:25:00.182Z,8.9
2023-09-28T02:30:00.144Z,8.9
2023-09-28T02:35:00.166Z,8.9
2023-09-28T02:40:00.167Z,8.9
2023-09-28T02:45:00.189Z,8.9
2023-09-28T02:50:00.217Z,8.9
2023-09-28T02:55:00.154Z,8.9
2023-09-28T03:00:00.168Z,8.9
2023-09-28T03:05:00.162Z,9
2023-09-28T03:10:00.179Z,9
2023-09-28T03:15:00.133Z,9
2023-09-28T03:20:00.152Z,9.1
2023-09-28T03:25:00.152Z,9.1
2023-09-28T03:30:00.153Z,9.1
2023-09-28T03:35:00.186Z,9.1
2023-09-28T03:40:00.122Z,9.1
2023-09-28T03:45:00.158Z,9.1
2023-09-28T03:50:00.171Z,9.1
2023-09-28T03:55:00.137Z,9.1
2023-09-28T04:00:00.126Z,9.2
2023-09-28T04:05:00.167Z,9.2
2023-09-28T04:10:00.189Z,9.3
2023-09-28T04:15:00.135Z,9.4
2023-09-28T04:20:00.177Z,9.4
2023-09-28T04:25:00.123Z,9.4
2023-09-28T04:30:00.206Z,9.4
2023-09-28T04:35:00.286Z,9.4
2023-09-28T04:40:00.153Z,9.4
2023-09-28T04:45:00.153Z,9.4
2023-09-28T04:50:00.182Z,9.4
2023-09-28T04:55:00.144Z,9.4
2023-09-28T05:00:00.196Z,9.4
2023-09-28T05:05:00.170Z,9.3
2023-09-28T05:10:00.158Z,9.4
2023-09-28T05:15:00.204Z,9.4
2023-09-28T05:20:00.214Z,9.5
2023-09-28T05:25:00.127Z,9.5
2023-09-28T05:30:00.170Z,9.4
2023-09-28T05:35:00.126Z,9.4
2023-09-28T05:40:00.147Z,9.2
2023-09-28T05:45:00.139Z,9.2
2023-09-28T05:50:00.177Z,9.2
2023-09-28T05:55:00.132Z,9.2
2023-09-28T06:00:00.142Z,9.2
2023-09-28T06:05:00.194Z,9.3
2023-09-28T06:10:00.133Z,9.4
2023-09-28T06:15:00.126Z,9.4
2023-09-28T06:20:00.160Z,9.5
2023-09-28T06:25:00.144Z,9.6
2023-09-28T06:30:00.215Z,9.6
2023-09-28T06:35:00.142Z,9.8
2023-09-28T06:40:00.173Z,10
2023-09-28T06:45:00.144Z,10.1
2023-09-28T06:50:00.171Z,10.4
2023-09-28T06:55:00.137Z,10.5
2023-09-28T07:00:00.162Z,10.7
2023-09-28T07:05:00.229Z,10.7
2023-09-28T07:10:00.200Z,10.9
2023-09-28T07:15:00.154Z,11
2023-09-28T07:20:00.146Z,11.1
2023-09-28T07:25:00.173Z,11.5
2023-09-28T07:30:00.156Z,12
2023-09-28T07:35:00.189Z,11.9
2023-09-28T07:40:00.149Z,12
2023-09-28T07:45:00.165Z,12
2023-09-28T07:50:00.282Z,11.9
2023-09-28T07:55:00.136Z,11.8
2023-09-28T08:00:00.152Z,11.9
2023-09-28T08:10:00.200Z,11.9
2023-09-28T08:15:00.142Z,11.9
2023-09-28T08:20:00.200Z,11.4
2023-09-28T08:25:00.138Z,11.8
2023-09-28T08:30:00.136Z,12.1
2023-09-28T08:35:00.217Z,11.7
2023-09-28T08:40:00.135Z,11.6
2023-09-28T08:45:00.141Z,11.6
2023-09-28T08:50:00.227Z,11.6
2023-09-28T08:55:00.133Z,11.6
2023-09-28T09:00:00.155Z,11.5
2023-09-28T09:05:00.229Z,11.5
2023-09-28T09:10:00.208Z,11.7
2023-09-28T09:15:00.142Z,11.8
2023-09-28T09:20:00.154Z,11.8
2023-09-28T09:25:00.400Z,11.8
2023-09-28T09:35:00.190Z,11.7
2023-09-28T09:40:00.158Z,12
2023-09-28T09:45:00.178Z,11.6
2023-09-28T09:50:00.219Z,11.4
2023-09-28T09:55:00.167Z,11.5
2023-09-28T10:00:00.661Z,11.7
2023-09-28T10:05:00.143Z,11.6
2023-09-28T10:10:00.191Z,11.4
2023-09-28T10:15:00.181Z,11.8
2023-09-28T10:20:00.201Z,11.6
2023-09-28T10:25:00.192Z,11.5
2023-09-28T10:30:00.159Z,11.7
2023-09-28T10:35:00.151Z,11.8
2023-09-28T10:40:00.194Z,12
2023-09-28T10:45:00.179Z,11.8
2023-09-28T10:50:00.209Z,11.8
2023-09-28T10:55:00.150Z,12
2023-09-28T11:00:00.144Z,11.9
2023-09-28T11:05:00.316Z,11.9
2023-09-28T11:10:00.308Z,11.8
2023-09-28T11:15:00.289Z,12.2
2023-09-28T11:20:00.173Z,11.9
2023-09-28T11:25:00.141Z,12
2023-09-28T11:30:00.192Z,11.9
2023-09-28T11:40:00.145Z,11.9
2023-09-28T11:45:00.149Z,11.5
2023-09-28T11:50:00.182Z,11.5
2023-09-28T11:55:00.143Z,11.9
2023-09-28T12:05:00.157Z,11.5
2023-09-28T12:15:00.166Z,11.9
2023-09-28T12:20:00.324Z,11
2023-09-28T12:25:00.150Z,11.3
2023-09-28T12:30:00.136Z,11.3
2023-09-28T12:35:00.242Z,11.1
2023-09-28T12:40:00.167Z,11.2
2023-09-28T12:45:00.178Z,11.2
2023-09-28T12:50:00.187Z,10.8
2023-09-28T12:55:00.146Z,10.9
2023-09-28T13:00:00.143Z,11.2
2023-09-28T13:05:00.297Z,10
2023-09-28T13:10:00.210Z,10.3
2023-09-28T13:15:00.144Z,10.4
2023-09-28T13:20:00.192Z,10.9
2023-09-28T13:25:00.165Z,10.3
2023-09-28T13:30:00.146Z,10.3
2023-09-28T13:35:00.169Z,10.1
2023-09-28T13:40:00.157Z,10.8
2023-09-28T13:45:00.222Z,10.7
2023-09-28T13:50:00.200Z,11.1
2023-09-28T13:55:00.124Z,10.7
2023-09-28T14:00:00.136Z,10.4
2023-09-28T14:05:00.173Z,10.5
2023-09-28T14:10:00.144Z,10.1
2023-09-28T14:15:00.140Z,10.5
2023-09-28T14:20:00.162Z,10.4
2023-09-28T14:25:00.136Z,10.6
2023-09-28T14:30:00.139Z,10.9
2023-09-28T14:35:00.148Z,10.9
2023-09-28T14:40:00.135Z,10.8
2023-09-28T14:50:00.175Z,12.3
2023-09-28T14:55:00.139Z,12.9
2023-09-28T15:00:00.151Z,12.5
2023-09-28T15:10:00.145Z,12.7
2023-09-28T15:15:00.157Z,12.6
2023-09-28T15:20:00.195Z,13.3
2023-09-28T15:25:00.145Z,13.6
2023-09-28T15:35:00.152Z,13.2
2023-09-28T15:45:00.147Z,12.9
2023-09-28T15:50:02.486Z,12.7
2023-09-28T15:55:00.131Z,12.5
2023-09-28T16:00:00.153Z,12.4
2023-09-28T16:05:00.144Z,12
2023-09-28T16:10:00.157Z,11.8
2023-09-28T16:15:00.143Z,11.9
2023-09-28T16:20:00.160Z,11.7
2023-09-28T16:25:00.171Z,11.6
2023-09-28T16:30:00.144Z,11.6
2023-09-28T16:35:00.178Z,11.5
2023-09-28T16:40:00.204Z,11.5
2023-09-28T16:45:00.186Z,11.5
2023-09-28T16:50:00.170Z,11.4
2023-09-28T16:55:00.125Z,11.4
2023-09-28T17:00:00.152Z,11.4
2023-09-28T17:05:00.133Z,11.5
2023-09-28T17:10:00.157Z,11.4
2023-09-28T17:15:00.148Z,11.4
2023-09-28T17:20:00.145Z,11.4
2023-09-28T17:25:00.149Z,11.3
2023-09-28T17:30:00.199Z,11.1
2023-09-28T17:35:00.192Z,11
2023-09-28T17:40:00.140Z,11.1
2023-09-28T17:50:00.174Z,11
2023-09-28T17:55:00.137Z,10.9
2023-09-28T18:00:00.204Z,10.8
2023-09-28T18:05:00.140Z,10.8
2023-09-28T18:10:00.165Z,10.8
2023-09-28T18:15:02.675Z,10.8
2023-09-28T18:20:00.154Z,10.8
2023-09-28T18:25:00.158Z,10.7
2023-09-28T18:30:00.200Z,10.6
2023-09-28T18:35:00.146Z,10.5
2023-09-28T18:40:00.524Z,10.5
2023-09-28T18:45:00.151Z,10.5
2023-09-28T18:50:00.173Z,10.5
2023-09-28T18:55:00.139Z,10.5
2023-09-28T19:00:00.147Z,10.5
2023-09-28T19:05:00.170Z,10.4
2023-09-28T19:10:00.169Z,10.3
2023-09-28T19:15:00.166Z,10.3
2023-09-28T19:20:00.152Z,10.3
2023-09-28T19:25:00.145Z,10.3
2023-09-28T19:30:00.139Z,10.2
2023-09-28T19:35:00.158Z,10.1
2023-09-28T19:40:00.161Z,10.1
2023-09-28T19:45:00.153Z,10.1
2023-09-28T19:50:00.150Z,10.2
2023-09-28T19:55:00.146Z,10.1
2023-09-28T20:00:00.161Z,10.1
2023-09-28T20:05:00.149Z,10.1
2023-09-28T20:10:00.156Z,10
2023-09-28T20:15:00.151Z,9.9
2023-09-28T20:20:00.149Z,9.9
2023-09-28T20:25:00.160Z,9.9
2023-09-28T20:30:00.189Z,9.8
2023-09-28T20:35:00.138Z,9.8
2023-09-28T20:40:00.200Z,9.8
2023-09-28T20:45:00.149Z,9.7
2023-09-28T20:50:00.180Z,9.7
2023-09-28T20:55:00.133Z,9.7
2023-09-28T21:00:00.156Z,9.6
2023-09-28T21:05:00.156Z,9.6
2023-09-28T21:10:00.177Z,9.5
2023-09-28T21:15:00.137Z,9.5
2023-09-28T21:20:00.174Z,9.4
2023-09-28T21:25:00.154Z,9.3
2023-09-28T21:30:00.189Z,9.3
2023-09-28T21:35:00.185Z,9.3
2023-09-28T21:40:00.170Z,9.3
2023-09-28T21:45:00.235Z,9.3
2023-09-28T21:50:00.165Z,9.3
2023-09-28T21:55:00.153Z,9.3
2023-09-28T22:00:00.176Z,9.3
2023-09-28T22:05:00.148Z,9.2
2023-09-28T22:10:00.158Z,9.2
2023-09-28T22:15:00.126Z,9.2
2023-09-28T22:20:00.150Z,9.2
2023-09-28T22:25:00.167Z,9.2
2023-09-28T22:30:00.141Z,9.1
2023-09-28T22:35:00.121Z,9.1
2023-09-28T22:40:05.430Z,9
2023-09-28T22:45:00.147Z,9
2023-09-28T22:50:00.169Z,9
2023-09-28T22:55:00.157Z,9
2023-09-28T23:00:00.147Z,8.9
2023-09-28T23:05:00.131Z,8.9
2023-09-28T23:10:00.178Z,8.9
2023-09-28T23:15:00.198Z,8.8
2023-09-28T23:20:00.159Z,8.7
2023-09-28T23:25:00.138Z,8.7
2023-09-28T23:30:00.175Z,8.7
2023-09-28T23:35:00.155Z,8.7
2023-09-28T23:40:00.188Z,8.6
2023-09-28T23:45:00.149Z,8.6
2023-09-28T23:50:00.203Z,8.6
2023-09-28T23:55:00.189Z,8.5
